Time;durP1;ratioP1;P1;durP2;ratioP2;P2;SDS_P1;SDS_P2;PMS_P1;PMS_P2;Temp;Humidity;BMP_temperature;BMP_pressure;BME280_temperature;BME280_humidity;BME280_pressure;Samples;Min_cycle;Max_cycle;Signal;HPM_P1;HPM_P2
2021/04/30 00:00:36;;;;;;;20.10;18.30;;;3.90;99.90;;;;;;5043404;28;20471;-69
2021/04/30 00:03:03;;;;;;;21.70;19.80;;;4.00;99.90;;;;;;5044120;28;20472;-72
2021/04/30 00:05:29;;;;;;;21.60;19.40;;;4.00;99.90;;;;;;5042969;28;20467;-71
2021/04/30 00:07:57;;;;;;;25.80;20.30;;;4.20;99.90;;;;;;5042910;28;20467;-70
2021/04/30 00:10:23;;;;;;;21.10;19.07;;;4.30;99.90;;;;;;5042378;28;20686;-71
2021/04/30 00:12:50;;;;;;;20.23;18.57;;;4.30;99.90;;;;;;5042544;28;20463;-72
2021/04/30 00:15:17;;;;;;;20.53;18.40;;;4.40;99.90;;;;;;5040717;28;20558;-73
2021/04/30 00:17:44;;;;;;;19.53;17.77;;;4.50;99.90;;;;;;5041539;28;20454;-71
2021/04/30 00:20:12;;;;;;;19.57;17.60;;;4.50;99.90;;;;;;5043877;28;20459;-72
2021/04/30 00:22:38;;;;;;;20.17;18.57;;;4.60;99.90;;;;;;5042478;28;21308;-71
2021/04/30 00:25:07;;;;;;;20.00;17.90;;;4.70;99.90;;;;;;5042475;28;20459;-72
2021/04/30 00:27:33;;;;;;;20.33;18.20;;;4.80;99.90;;;;;;5042478;28;20977;-73
2021/04/30 00:30:00;;;;;;;18.70;17.00;;;4.90;99.90;;;;;;5044666;28;20574;-70
2021/04/30 00:32:27;;;;;;;19.50;16.67;;;5.00;99.90;;;;;;5043155;28;20551;-71
2021/04/30 00:34:54;;;;;;;18.00;16.20;;;5.00;99.90;;;;;;5040135;28;20513;-71
2021/04/30 00:37:20;;;;;;;21.07;19.20;;;5.00;99.90;;;;;;5042254;28;20525;-72
2021/04/30 00:39:46;;;;;;;18.07;16.27;;;5.10;99.90;;;;;;5042460;28;20497;-69
2021/04/30 00:42:16;;;;;;;21.30;17.67;;;5.10;99.90;;;;;;5039843;28;20468;-70
2021/04/30 00:44:45;;;;;;;21.00;17.90;;;5.20;99.90;;;;;;5041322;28;20949;-74
2021/04/30 00:47:28;;;;;;;19.70;18.17;;;5.20;99.90;;;;;;5042934;28;20908;-73
2021/04/30 00:49:54;;;;;;;19.60;17.57;;;5.30;99.90;;;;;;5038976;28;20494;-70
2021/04/30 00:52:21;;;;;;;20.33;18.40;;;5.20;99.90;;;;;;5042285;28;20990;-73
2021/04/30 00:54:47;;;;;;;22.93;18.83;;;5.20;99.90;;;;;;5042116;28;20486;-73
2021/04/30 00:57:15;;;;;;;20.43;18.40;;;5.20;99.90;;;;;;5043648;28;20464;-72
2021/04/30 00:59:42;;;;;;;20.33;18.63;;;5.20;99.90;;;;;;5042741;28;20474;-70
2021/04/30 01:02:08;;;;;;;21.30;19.13;;;5.30;99.90;;;;;;5041983;28;20553;-72
2021/04/30 01:04:35;;;;;;;20.30;18.40;;;5.20;99.90;;;;;;5042379;28;20460;-73
2021/04/30 01:07:02;;;;;;;20.70;19.07;;;5.30;99.90;;;;;;5041100;28;20468;-72
2021/04/30 01:09:28;;;;;;;22.00;19.73;;;5.30;99.90;;;;;;5042369;28;20495;-72
2021/04/30 01:11:56;;;;;;;22.63;20.67;;;5.30;99.90;;;;;;5043917;28;20508;-73
2021/04/30 01:14:24;;;;;;;21.13;19.10;;;5.30;99.90;;;;;;5042149;28;20566;-73
2021/04/30 01:16:51;;;;;;;21.30;18.30;;;5.30;99.90;;;;;;5041874;28;20474;-72
2021/04/30 01:19:21;;;;;;;24.97;19.57;;;5.30;99.90;;;;;;5039538;28;20459;-71
2021/04/30 01:21:53;;;;;;;21.33;19.47;;;5.40;99.90;;;;;;5041823;28;20500;-70
2021/04/30 01:24:20;;;;;;;21.67;19.47;;;5.20;99.90;;;;;;5043440;28;20456;-71
2021/04/30 01:26:46;;;;;;;20.20;18.50;;;5.10;99.90;;;;;;5043288;28;20479;-71
2021/04/30 01:29:12;;;;;;;21.30;19.30;;;5.10;99.90;;;;;;5042185;28;20486;-72
2021/04/30 01:31:39;;;;;;;21.90;20.00;;;5.20;99.90;;;;;;5041095;28;20465;-72
2021/04/30 01:34:06;;;;;;;23.37;20.87;;;5.20;99.90;;;;;;5042755;28;20489;-73
2021/04/30 01:36:32;;;;;;;23.13;20.83;;;5.20;99.90;;;;;;5042788;28;20489;-69
2021/04/30 01:39:01;;;;;;;23.03;20.93;;;5.20;99.90;;;;;;5041785;28;20468;-71
2021/04/30 01:41:28;;;;;;;22.40;20.40;;;5.30;99.90;;;;;;5042122;28;20491;-71
2021/04/30 01:43:54;;;;;;;23.00;20.50;;;5.20;99.90;;;;;;5041759;28;20838;-71
2021/04/30 01:46:21;;;;;;;20.40;18.67;;;5.20;99.90;;;;;;5040105;28;20466;-72
2021/04/30 01:48:47;;;;;;;25.23;22.37;;;5.20;99.90;;;;;;5043198;28;20460;-71
2021/04/30 01:51:14;;;;;;;23.03;20.53;;;5.30;99.90;;;;;;5041825;28;20778;-72
2021/04/30 01:53:40;;;;;;;22.40;20.37;;;5.30;99.90;;;;;;5041942;28;20959;-70
2021/04/30 01:56:08;;;;;;;24.47;20.10;;;5.30;99.90;;;;;;5045824;28;20837;-73
2021/04/30 01:58:35;;;;;;;20.23;18.60;;;5.30;99.90;;;;;;5047168;28;20483;-72
2021/04/30 02:01:02;;;;;;;21.07;19.20;;;5.20;99.90;;;;;;5046112;28;20889;-70
2021/04/30 02:03:29;;;;;;;20.77;18.60;;;5.30;99.90;;;;;;5045199;28;20806;-71
2021/04/30 02:05:55;;;;;;;23.63;21.27;;;5.20;99.90;;;;;;5045429;28;20466;-73
2021/04/30 02:08:22;;;;;;;25.33;21.47;;;5.20;99.90;;;;;;5046083;28;20560;-71
2021/04/30 02:10:48;;;;;;;23.23;20.90;;;5.20;99.90;;;;;;5045184;28;20868;-69
2021/04/30 02:13:16;;;;;;;21.73;19.93;;;5.10;99.90;;;;;;5045778;28;20455;-71
2021/04/30 02:15:45;;;;;;;23.73;21.53;;;5.20;99.90;;;;;;5044930;28;20463;-74
2021/04/30 02:18:11;;;;;;;23.17;20.77;;;5.30;99.90;;;;;;5044682;28;20472;-70
2021/04/30 02:20:39;;;;;;;25.43;22.23;;;5.30;99.90;;;;;;5044662;28;20472;-73
2021/04/30 02:23:05;;;;;;;23.70;21.23;;;5.30;99.90;;;;;;5044918;28;20517;-70
2021/04/30 02:25:32;;;;;;;25.27;22.57;;;5.40;99.90;;;;;;5046108;28;20463;-70
2021/04/30 02:28:01;;;;;;;26.23;23.60;;;5.40;99.90;;;;;;5043208;28;20586;-73
2021/04/30 02:30:30;;;;;;;27.30;24.40;;;5.30;99.90;;;;;;5044522;28;20910;-71
2021/04/30 02:32:57;;;;;;;22.37;20.20;;;5.40;99.90;;;;;;5044693;28;20559;-71
2021/04/30 02:35:25;;;;;;;26.63;22.23;;;5.30;99.90;;;;;;5044771;28;20460;-70
2021/04/30 02:37:53;;;;;;;26.57;23.87;;;5.30;99.90;;;;;;5045780;28;20556;-70
2021/04/30 02:40:23;;;;;;;33.13;23.50;;;5.50;99.90;;;;;;5043909;28;20488;-73
2021/04/30 02:42:50;;;;;;;26.13;23.50;;;5.50;99.90;;;;;;5044892;28;20466;-74
2021/04/30 02:45:17;;;;;;;24.87;22.27;;;5.40;99.90;;;;;;5043583;28;20467;-70
2021/04/30 02:47:46;;;;;;;25.67;23.07;;;5.50;99.90;;;;;;5044460;28;20881;-72
2021/04/30 02:50:14;;;;;;;30.03;24.67;;;5.50;99.90;;;;;;5045166;28;20498;-73
2021/04/30 02:52:41;;;;;;;26.17;23.43;;;5.60;99.90;;;;;;5045195;28;20476;-72
2021/04/30 02:55:09;;;;;;;26.30;23.60;;;5.60;99.90;;;;;;5044205;28;20463;-71
2021/04/30 02:57:36;;;;;;;26.10;23.27;;;5.60;99.90;;;;;;5044441;28;20489;-72
2021/04/30 03:00:04;;;;;;;26.10;23.80;;;5.60;99.90;;;;;;5043109;28;20464;-72
2021/04/30 03:02:30;;;;;;;26.20;23.40;;;5.50;99.90;;;;;;5042315;28;20464;-72
2021/04/30 03:04:58;;;;;;;26.70;24.00;;;5.60;99.90;;;;;;5044353;28;20885;-73
2021/04/30 03:07:25;;;;;;;25.03;22.63;;;5.60;99.90;;;;;;5045043;28;21161;-72
2021/04/30 03:09:51;;;;;;;28.13;25.03;;;5.60;99.90;;;;;;5043404;28;20503;-72
2021/04/30 03:12:17;;;;;;;27.43;24.40;;;5.60;99.90;;;;;;5043956;28;20468;-70
2021/04/30 03:14:44;;;;;;;37.10;24.77;;;5.60;99.90;;;;;;5044253;28;20471;-70
2021/04/30 03:17:10;;;;;;;26.67;23.90;;;5.70;99.90;;;;;;5046199;28;20799;-70
2021/04/30 03:19:37;;;;;;;26.73;24.07;;;5.60;99.90;;;;;;5042979;28;20472;-71
2021/04/30 03:22:04;;;;;;;26.30;23.77;;;5.60;99.90;;;;;;5043889;28;21302;-71
2021/04/30 03:24:31;;;;;;;29.73;24.63;;;5.70;99.90;;;;;;5044044;28;20502;-71
2021/04/30 03:26:58;;;;;;;24.37;22.23;;;5.70;99.90;;;;;;5043555;28;20482;-71
2021/04/30 03:29:24;;;;;;;26.83;23.87;;;5.70;99.90;;;;;;5045942;28;20483;-73
2021/04/30 03:31:51;;;;;;;28.00;25.30;;;5.60;99.90;;;;;;5043713;28;20464;-70
2021/04/30 03:34:17;;;;;;;26.00;23.50;;;5.50;99.90;;;;;;5042202;28;20874;-73
2021/04/30 03:36:44;;;;;;;31.30;26.00;;;5.60;99.90;;;;;;5041850;28;20468;-71
2021/04/30 03:39:11;;;;;;;30.93;26.50;;;5.60;99.90;;;;;;5041769;28;20483;-70
2021/04/30 03:41:38;;;;;;;30.57;24.00;;;5.50;99.90;;;;;;5040622;28;20464;-72
2021/04/30 03:44:04;;;;;;;32.10;24.77;;;5.50;99.90;;;;;;5043848;28;20510;-71
2021/04/30 03:46:31;;;;;;;28.80;25.63;;;5.50;99.90;;;;;;5043262;28;20463;-72
2021/04/30 03:48:58;;;;;;;32.90;26.03;;;5.50;99.90;;;;;;5042987;28;20907;-70
2021/04/30 03:51:25;;;;;;;27.33;24.70;;;5.60;99.90;;;;;;5043739;28;20475;-73
2021/04/30 03:53:51;;;;;;;27.97;25.00;;;5.50;99.90;;;;;;5045033;28;20467;-72
2021/04/30 03:56:18;;;;;;;33.60;26.77;;;5.60;99.90;;;;;;5042906;28;20478;-73
2021/04/30 03:58:45;;;;;;;27.43;24.80;;;5.60;99.90;;;;;;5042605;28;20464;-73
2021/04/30 04:01:11;;;;;;;28.73;25.93;;;5.60;99.90;;;;;;5042788;28;20459;-72
2021/04/30 04:03:37;;;;;;;28.13;25.10;;;5.70;99.90;;;;;;5043916;28;20489;-70
2021/04/30 04:06:04;;;;;;;27.93;25.20;;;5.70;99.90;;;;;;5044153;28;20459;-73
2021/04/30 04:08:32;;;;;;;28.00;25.10;;;5.80;99.90;;;;;;5043464;28;20479;-72
2021/04/30 04:10:58;;;;;;;27.47;24.80;;;5.80;99.90;;;;;;5040214;28;20928;-71
2021/04/30 04:13:27;;;;;;;29.40;26.43;;;5.80;99.90;;;;;;5042816;28;20479;-71
2021/04/30 04:15:54;;;;;;;29.83;26.70;;;5.70;99.90;;;;;;5043488;28;20461;-72
2021/04/30 04:18:25;;;;;;;28.13;25.10;;;5.80;99.90;;;;;;5042475;28;20963;-69
2021/04/30 04:20:52;;;;;;;35.30;26.03;;;5.70;99.90;;;;;;5042354;28;21139;-70
2021/04/30 04:23:19;;;;;;;30.80;27.60;;;5.70;99.90;;;;;;5042334;28;20502;-71
2021/04/30 04:25:46;;;;;;;30.17;25.93;;;5.70;99.90;;;;;;5042698;28;20471;-73
2021/04/30 04:28:12;;;;;;;28.57;25.73;;;5.80;99.90;;;;;;5042670;28;20542;-73
2021/04/30 04:30:40;;;;;;;27.80;24.80;;;5.80;99.90;;;;;;5038431;28;20488;-70
2021/04/30 04:33:07;;;;;;;32.30;25.43;;;5.80;99.90;;;;;;5042274;28;20455;-71
2021/04/30 04:35:33;;;;;;;29.97;27.00;;;5.80;99.90;;;;;;5042649;28;20993;-72
2021/04/30 04:38:00;;;;;;;29.53;26.57;;;5.70;99.90;;;;;;5042338;28;20941;-72
2021/04/30 04:40:26;;;;;;;30.10;27.00;;;5.70;99.90;;;;;;5043477;28;20494;-72
2021/04/30 04:42:53;;;;;;;30.27;27.20;;;5.80;99.90;;;;;;5043016;28;20456;-73
2021/04/30 04:45:21;;;;;;;29.03;26.17;;;5.80;99.90;;;;;;5039854;28;20462;-71
2021/04/30 04:47:48;;;;;;;31.20;27.93;;;5.80;99.90;;;;;;5042252;28;20476;-70
2021/04/30 04:50:15;;;;;;;29.47;26.33;;;5.80;99.90;;;;;;5040805;28;20578;-70
2021/04/30 04:52:42;;;;;;;30.47;27.27;;;5.70;99.90;;;;;;5040883;28;21010;-71
2021/04/30 04:55:11;;;;;;;37.30;27.50;;;5.80;99.90;;;;;;5041740;28;20558;-71
2021/04/30 04:57:38;;;;;;;28.83;25.80;;;5.70;99.90;;;;;;5042305;28;20467;-69
2021/04/30 05:00:07;;;;;;;30.70;27.40;;;5.70;99.90;;;;;;5041599;28;20468;-69
2021/04/30 05:02:34;;;;;;;28.20;25.60;;;5.70;99.90;;;;;;5042010;28;20868;-72
2021/04/30 05:05:02;;;;;;;35.70;28.20;;;5.90;99.90;;;;;;5044595;28;20814;-70
2021/04/30 05:07:28;;;;;;;33.40;29.80;;;6.00;99.90;;;;;;5041865;28;20464;-73
2021/04/30 05:09:54;;;;;;;31.33;27.97;;;5.90;99.90;;;;;;5041596;28;20500;-71
2021/04/30 05:12:20;;;;;;;31.33;27.73;;;6.10;99.90;;;;;;5040489;28;20847;-70
2021/04/30 05:14:47;;;;;;;38.57;29.77;;;5.90;99.90;;;;;;5042609;28;20471;-72
2021/04/30 05:17:13;;;;;;;32.17;29.03;;;5.90;99.90;;;;;;5044005;28;20451;-70
2021/04/30 05:19:40;;;;;;;36.87;29.67;;;6.10;99.90;;;;;;5041103;28;20475;-70
2021/04/30 05:22:10;;;;;;;36.30;32.50;;;6.00;99.90;;;;;;5041722;28;20464;-70
2021/04/30 05:24:37;;;;;;;33.47;29.67;;;5.90;99.90;;;;;;5041687;28;20459;-71
2021/04/30 05:27:06;;;;;;;31.77;28.40;;;6.10;99.90;;;;;;5042614;28;20865;-72
2021/04/30 05:29:34;;;;;;;34.10;30.40;;;6.20;99.90;;;;;;5041404;28;20483;-70
2021/04/30 05:32:02;;;;;;;33.80;30.20;;;6.30;99.90;;;;;;5046029;28;20467;-73
2021/04/30 05:34:28;;;;;;;33.70;30.30;;;6.40;99.90;;;;;;5045171;28;20688;-72
2021/04/30 05:36:54;;;;;;;33.20;27.07;;;6.40;99.90;;;;;;5045927;28;20990;-71
2021/04/30 05:39:21;;;;;;;34.20;30.67;;;6.20;99.90;;;;;;5045227;28;20487;-71
2021/04/30 05:41:48;;;;;;;37.30;33.40;;;6.20;99.90;;;;;;5045987;28;20459;-73
2021/04/30 05:44:15;;;;;;;32.87;29.33;;;6.30;99.90;;;;;;5045926;28;20463;-71
2021/04/30 05:46:41;;;;;;;35.00;31.17;;;6.40;99.90;;;;;;5045388;28;20530;-70
2021/04/30 05:49:07;;;;;;;36.27;32.60;;;6.30;99.90;;;;;;5045283;28;20456;-70
2021/04/30 05:51:33;;;;;;;33.67;30.10;;;6.30;99.90;;;;;;5044582;28;20990;-70
2021/04/30 05:54:00;;;;;;;31.83;28.60;;;6.40;99.90;;;;;;5046285;28;20819;-70
2021/04/30 05:56:27;;;;;;;27.93;25.37;;;6.50;99.90;;;;;;5046308;28;20456;-69
2021/04/30 05:58:54;;;;;;;38.33;30.03;;;6.40;99.90;;;;;;5045396;28;20517;-70
2021/04/30 06:01:21;;;;;;;31.10;27.80;;;6.50;99.90;;;;;;5042272;28;20743;-72
2021/04/30 06:03:47;;;;;;;35.10;28.40;;;6.40;99.90;;;;;;5044977;28;20886;-70
2021/04/30 06:06:13;;;;;;;32.57;29.20;;;6.40;99.90;;;;;;5046986;28;20459;-70
2021/04/30 06:08:40;;;;;;;32.87;29.67;;;6.50;99.90;;;;;;5042968;28;20491;-72
2021/04/30 06:11:06;;;;;;;33.53;29.90;;;6.60;99.90;;;;;;5044808;28;20910;-70
2021/04/30 06:13:33;;;;;;;43.30;30.83;;;6.60;99.90;;;;;;5044743;28;20463;-70
2021/04/30 06:15:59;;;;;;;35.23;31.70;;;6.60;99.90;;;;;;5045461;28;20471;-73
2021/04/30 06:18:26;;;;;;;31.53;28.23;;;6.80;99.90;;;;;;5046238;28;20463;-73
2021/04/30 06:20:52;;;;;;;34.60;29.83;;;6.80;99.90;;;;;;5044609;28;20460;-72
2021/04/30 06:23:18;;;;;;;34.23;30.33;;;6.90;99.90;;;;;;5044502;28;20525;-70
2021/04/30 06:25:45;;;;;;;34.27;30.43;;;7.00;99.90;;;;;;5041564;28;20475;-71
2021/04/30 06:28:12;;;;;;;36.23;28.93;;;7.00;99.90;;;;;;5043237;28;20468;-69
2021/04/30 06:30:39;;;;;;;33.00;29.50;;;7.00;99.90;;;;;;5042779;28;20483;-72
2021/04/30 06:33:08;;;;;;;32.63;29.30;;;7.10;99.90;;;;;;5046821;28;20471;-70
2021/04/30 06:35:35;;;;;;;32.70;29.10;;;7.10;99.90;;;;;;5041877;28;20471;-72
2021/04/30 06:38:01;;;;;;;28.63;25.80;;;7.30;99.90;;;;;;5044410;28;20679;-71
2021/04/30 06:40:28;;;;;;;31.40;28.30;;;7.30;99.90;;;;;;5044086;28;20479;-72
2021/04/30 06:42:54;;;;;;;31.53;28.57;;;7.40;99.90;;;;;;5041103;28;20471;-72
2021/04/30 06:45:21;;;;;;;31.00;27.57;;;7.40;99.90;;;;;;5041537;28;20471;-71
2021/04/30 06:47:48;;;;;;;31.73;28.57;;;7.20;99.90;;;;;;5045674;28;20483;-72
2021/04/30 06:50:15;;;;;;;33.37;30.10;;;7.10;99.90;;;;;;5041927;28;20492;-71
2021/04/30 06:52:41;;;;;;;32.03;28.83;;;7.20;99.90;;;;;;5043942;28;20465;-73
2021/04/30 06:55:09;;;;;;;31.70;28.80;;;7.20;99.90;;;;;;5043899;28;21445;-72
2021/04/30 06:57:36;;;;;;;32.40;29.40;;;7.30;99.90;;;;;;5044670;28;20858;-72
2021/04/30 07:00:03;;;;;;;32.93;29.70;;;7.40;99.90;;;;;;5045163;28;20467;-71
2021/04/30 07:02:30;;;;;;;34.33;29.93;;;7.50;99.90;;;;;;5041652;28;20455;-72
2021/04/30 07:04:58;;;;;;;31.07;27.90;;;7.60;99.90;;;;;;5043667;28;20822;-71
2021/04/30 07:07:24;;;;;;;34.03;29.00;;;7.60;99.90;;;;;;5043792;28;21001;-71
2021/04/30 07:09:51;;;;;;;35.10;28.00;;;7.40;99.90;;;;;;5043398;28;20496;-71
2021/04/30 07:12:18;;;;;;;34.20;29.50;;;7.40;99.90;;;;;;5043192;28;20887;-72
2021/04/30 07:14:45;;;;;;;35.10;29.73;;;7.40;99.90;;;;;;5044536;28;20918;-71
2021/04/30 07:17:12;;;;;;;33.07;29.67;;;7.20;99.90;;;;;;5043794;28;20659;-72
2021/04/30 07:19:38;;;;;;;46.13;28.97;;;7.40;99.90;;;;;;5043303;28;20472;-71
2021/04/30 07:22:09;;;;;;;33.17;29.37;;;7.30;99.90;;;;;;5038151;28;20467;-71
2021/04/30 07:24:35;;;;;;;35.53;29.10;;;7.50;99.90;;;;;;5043796;28;20506;-72
2021/04/30 07:27:03;;;;;;;32.57;29.37;;;7.60;99.90;;;;;;5041410;28;20534;-70
2021/04/30 07:29:30;;;;;;;35.83;30.10;;;7.60;99.90;;;;;;5041925;28;20469;-72
2021/04/30 07:31:58;;;;;;;32.40;29.07;;;7.70;99.90;;;;;;5043165;28;20489;-73
2021/04/30 07:34:24;;;;;;;31.47;28.27;;;7.70;99.90;;;;;;5037089;28;20930;-71
2021/04/30 07:36:52;;;;;;;33.10;29.57;;;7.80;99.90;;;;;;5046670;28;20467;-72
2021/04/30 07:39:19;;;;;;;36.63;27.83;;;7.80;99.90;;;;;;5041511;28;20481;-71
2021/04/30 07:41:46;;;;;;;35.93;30.27;;;7.80;99.90;;;;;;5043868;28;20470;-70
2021/04/30 07:44:12;;;;;;;32.53;28.63;;;8.10;99.90;;;;;;5042719;28;20916;-71
2021/04/30 07:46:38;;;;;;;30.50;27.50;;;8.00;99.90;;;;;;5042828;28;20462;-71
2021/04/30 07:49:05;;;;;;;32.17;28.80;;;7.90;99.90;;;;;;5044888;28;20826;-72
2021/04/30 07:51:32;;;;;;;36.30;29.47;;;7.70;99.90;;;;;;5043593;28;20568;-71
2021/04/30 07:53:58;;;;;;;31.83;28.53;;;7.90;99.90;;;;;;5043380;28;20519;-71
2021/04/30 07:56:25;;;;;;;33.57;30.10;;;7.70;99.90;;;;;;5041070;28;20470;-71
2021/04/30 07:58:52;;;;;;;32.33;28.97;;;7.70;99.90;;;;;;5042996;28;20502;-71
2021/04/30 08:01:20;;;;;;;35.17;28.27;;;8.00;99.90;;;;;;5041592;28;20559;-71
2021/04/30 08:03:46;;;;;;;33.20;29.57;;;8.20;99.90;;;;;;5041974;28;20558;-72
2021/04/30 08:06:13;;;;;;;31.30;28.20;;;8.30;99.90;;;;;;5042929;28;20468;-73
2021/04/30 08:08:40;;;;;;;32.40;28.97;;;8.40;99.90;;;;;;5041888;28;20494;-73
2021/04/30 08:11:07;;;;;;;32.60;29.20;;;8.40;99.90;;;;;;5042306;28;20910;-72
2021/04/30 08:13:35;;;;;;;33.87;30.60;;;8.50;99.90;;;;;;5042614;28;20529;-72
2021/04/30 08:16:01;;;;;;;34.30;28.73;;;8.40;99.90;;;;;;5036406;28;20460;-72
2021/04/30 08:18:27;;;;;;;33.47;29.50;;;8.40;99.90;;;;;;5043157;28;20971;-72
2021/04/30 08:20:54;;;;;;;33.47;30.00;;;8.50;99.90;;;;;;5042730;28;20972;-72
2021/04/30 08:23:21;;;;;;;31.67;28.37;;;8.60;99.90;;;;;;5039404;28;20467;-71
2021/04/30 08:25:48;;;;;;;35.20;29.70;;;8.70;99.90;;;;;;5042330;28;20706;-73
2021/04/30 08:28:14;;;;;;;31.83;28.60;;;8.80;99.90;;;;;;5043355;28;20471;-73
2021/04/30 08:30:41;;;;;;;28.47;25.57;;;8.90;99.90;;;;;;5044705;28;20491;-72
2021/04/30 08:33:07;;;;;;;34.90;29.20;;;8.80;99.90;;;;;;5042123;28;20881;-72
2021/04/30 08:35:34;;;;;;;32.13;28.70;;;8.60;99.90;;;;;;5041681;28;20854;-72
2021/04/30 08:38:01;;;;;;;38.63;27.20;;;8.80;99.90;;;;;;5041129;28;20467;-73
2021/04/30 08:40:28;;;;;;;30.93;27.90;;;8.90;99.90;;;;;;5042518;28;20490;-72
2021/04/30 08:42:55;;;;;;;44.20;29.57;;;8.80;99.90;;;;;;5039293;28;20462;-73
2021/04/30 08:45:23;;;;;;;36.60;28.00;;;8.90;99.90;;;;;;5041972;28;20458;-71
2021/04/30 08:47:50;;;;;;;30.60;27.70;;;8.70;99.90;;;;;;5042376;28;20628;-72
2021/04/30 08:50:17;;;;;;;31.17;27.13;;;8.70;99.90;;;;;;5039097;28;20857;-72
2021/04/30 08:52:43;;;;;;;32.83;29.53;;;8.50;99.90;;;;;;5040672;28;20520;-73
2021/04/30 08:55:14;;;;;;;32.60;29.17;;;8.60;99.90;;;;;;5042441;28;20476;-71
2021/04/30 08:57:43;;;;;;;31.47;28.13;;;8.40;99.90;;;;;;5044080;28;20879;-73
2021/04/30 09:00:10;;;;;;;31.47;28.60;;;8.50;99.90;;;;;;5043006;28;21046;-72
2021/04/30 09:02:38;;;;;;;32.37;28.93;;;8.60;99.90;;;;;;5042392;28;20554;-72
2021/04/30 09:05:08;;;;;;;32.67;29.17;;;8.60;99.90;;;;;;5045448;28;20470;-72
2021/04/30 09:07:40;;;;;;;31.00;28.03;;;8.60;99.90;;;;;;5046337;28;20466;-73
2021/04/30 09:10:09;;;;;;;31.73;28.70;;;8.80;99.90;;;;;;5046384;28;21150;-72
2021/04/30 09:12:36;;;;;;;27.53;24.73;;;9.20;99.90;;;;;;5045516;28;20470;-71
2021/04/30 09:15:05;;;;;;;36.90;27.57;;;9.30;99.90;;;;;;5047938;28;20515;-72
2021/04/30 09:17:32;;;;;;;29.93;26.67;;;9.20;99.90;;;;;;5047162;28;21018;-71
2021/04/30 09:20:01;;;;;;;32.27;29.10;;;9.40;99.90;;;;;;5046453;28;20462;-73
2021/04/30 09:22:31;;;;;;;28.17;25.17;;;9.60;99.90;;;;;;5045563;28;20514;-73
2021/04/30 09:24:59;;;;;;;31.50;26.90;;;9.30;99.90;;;;;;5045630;28;20626;-72
2021/04/30 09:27:35;;;;;;;33.07;27.50;;;9.30;99.90;;;;;;5046350;28;20466;-73
2021/04/30 09:30:26;;;;;;;31.07;27.67;;;9.60;99.90;;;;;;5047466;28;20508;-73
2021/04/30 09:33:04;;;;;;;31.40;28.37;;;9.50;99.90;;;;;;5046629;28;20463;-72
2021/04/30 09:35:32;;;;;;;29.30;26.23;;;9.40;99.90;;;;;;5046421;28;21101;-71
2021/04/30 09:37:59;;;;;;;38.70;28.60;;;9.50;99.90;;;;;;5047241;28;20561;-74
2021/04/30 09:40:27;;;;;;;38.67;29.87;;;9.70;99.90;;;;;;5045812;28;20568;-72
2021/04/30 09:43:03;;;;;;;36.50;28.70;;;9.90;99.90;;;;;;5046166;28;20493;-72
2021/04/30 09:45:30;;;;;;;32.30;29.00;;;10.20;99.90;;;;;;5043645;28;20463;-74
2021/04/30 09:47:59;;;;;;;34.90;29.43;;;10.50;99.90;;;;;;5044191;28;20475;-74
2021/04/30 09:50:28;;;;;;;35.33;28.27;;;10.70;99.90;;;;;;5047290;28;20491;-71
2021/04/30 09:52:55;;;;;;;31.23;28.30;;;11.00;99.90;;;;;;5045919;28;20486;-74
2021/04/30 09:55:38;;;;;;;31.23;27.93;;;10.70;99.90;;;;;;5045715;28;20455;-73
2021/04/30 09:58:12;;;;;;;34.10;27.50;;;10.50;99.90;;;;;;5045632;28;20462;-73
2021/04/30 10:00:39;;;;;;;31.20;28.20;;;10.60;99.90;;;;;;5044892;28;20466;-73
2021/04/30 10:03:16;;;;;;;30.60;27.33;;;10.90;99.90;;;;;;5040681;28;20467;-74
2021/04/30 10:06:03;;;;;;;29.33;26.30;;;10.90;99.90;;;;;;5044298;28;20467;-75
2021/04/30 10:08:30;;;;;;;28.53;25.47;;;10.90;99.90;;;;;;5041889;28;20491;-72
2021/04/30 10:10:57;;;;;;;28.17;25.37;;;11.30;99.90;;;;;;5045736;28;20479;-74
2021/04/30 10:13:24;;;;;;;29.47;26.33;;;11.30;99.90;;;;;;5043859;28;20479;-72
2021/04/30 10:15:51;;;;;;;31.93;28.40;;;11.50;99.90;;;;;;5045111;28;20988;-76
2021/04/30 10:18:18;;;;;;;32.57;29.17;;;11.90;99.90;;;;;;5045569;28;20580;-73
2021/04/30 10:20:45;;;;;;;30.03;26.83;;;12.00;99.90;;;;;;5046983;28;20939;-76
2021/04/30 10:23:17;;;;;;;28.33;25.13;;;12.10;99.90;;;;;;5046294;28;20464;-73
2021/04/30 10:25:46;;;;;;;30.43;27.43;;;12.20;99.90;;;;;;5038152;28;20514;-74
2021/04/30 10:28:17;;;;;;;31.87;25.87;;;12.50;99.90;;;;;;5044899;28;20510;-75
2021/04/30 10:30:50;;;;;;;30.33;24.37;;;12.70;99.90;;;;;;5045956;28;20577;-74
2021/04/30 10:33:20;;;;;;;28.33;25.33;;;12.60;99.90;;;;;;5045809;28;20551;-74
2021/04/30 10:35:55;;;;;;;29.73;26.70;;;12.90;99.90;;;;;;5045071;28;20514;-74
2021/04/30 10:38:23;;;;;;;36.30;26.67;;;13.30;99.90;;;;;;5042994;28;20463;-74
2021/04/30 10:40:58;;;;;;;29.50;26.40;;;13.10;99.90;;;;;;5042002;28;20480;-74
2021/04/30 10:43:25;;;;;;;31.10;27.80;;;13.00;99.90;;;;;;5044762;28;20794;-75
2021/04/30 10:45:59;;;;;;;29.00;26.33;;;13.10;99.90;;;;;;5043801;28;20468;-74
2021/04/30 10:48:26;;;;;;;29.10;26.53;;;13.70;99.90;;;;;;5045544;28;20460;-73
2021/04/30 10:50:53;;;;;;;28.60;25.67;;;13.50;99.90;;;;;;5044551;28;20480;-76
2021/04/30 10:53:27;;;;;;;29.10;26.20;;;14.00;99.90;;;;;;5043197;28;20463;-73
2021/04/30 10:55:54;;;;;;;29.73;26.83;;;13.70;99.90;;;;;;5043860;28;20541;-74
2021/04/30 10:58:35;;;;;;;28.70;26.07;;;14.80;99.90;;;;;;5044320;28;20460;-73
2021/04/30 11:01:23;;;;;;;27.57;25.27;;;14.60;99.90;;;;;;5042148;28;20460;-73
2021/04/30 11:04:12;;;;;;;29.20;26.30;;;15.60;99.90;;;;;;5042546;28;20920;-75
2021/04/30 11:06:41;;;;;;;27.73;25.30;;;16.10;99.90;;;;;;5043183;28;20464;-75
2021/04/30 11:09:13;;;;;;;30.67;27.63;;;16.20;99.90;;;;;;5044336;28;20568;-74
2021/04/30 11:11:41;;;;;;;28.00;25.50;;;16.90;99.90;;;;;;5045732;28;20518;-75
2021/04/30 11:14:26;;;;;;;27.53;24.90;;;17.70;99.90;;;;;;5043969;28;20459;-74
2021/04/30 11:16:53;;;;;;;29.80;27.20;;;18.00;99.90;;;;;;5044270;28;20466;-77
2021/04/30 11:19:21;;;;;;;29.17;26.30;;;17.50;99.90;;;;;;5044492;28;20463;-76
2021/04/30 11:21:50;;;;;;;29.73;27.03;;;16.70;99.90;;;;;;5044051;28;20557;-74
2021/04/30 11:24:42;;;;;;;30.40;27.13;;;16.60;99.90;;;;;;5043781;28;20460;-74
2021/04/30 11:27:33;;;;;;;32.80;26.63;;;17.10;99.90;;;;;;5032808;28;20475;-75
2021/04/30 11:30:26;;;;;;;30.80;27.90;;;16.50;99.90;;;;;;5036219;28;20456;-76
2021/04/30 11:32:58;;;;;;;30.40;26.60;;;15.60;99.90;;;;;;5042715;28;20463;-75
2021/04/30 11:35:25;;;;;;;27.83;25.23;;;15.50;99.90;;;;;;5044235;28;20464;-74
2021/04/30 11:37:53;;;;;;;31.17;27.97;;;14.90;99.90;;;;;;5043711;28;21039;-75
2021/04/30 11:40:21;;;;;;;31.53;28.33;;;15.00;99.90;;;;;;5043440;28;20494;-75
2021/04/30 11:42:47;;;;;;;29.23;26.63;;;14.90;99.90;;;;;;5042067;28;20464;-75
2021/04/30 11:45:14;;;;;;;34.80;27.63;;;14.80;99.90;;;;;;5042648;28;20824;-76
2021/04/30 11:47:41;;;;;;;29.23;26.33;;;14.90;99.90;;;;;;5043669;28;21318;-77
2021/04/30 11:50:21;;;;;;;31.27;28.30;;;14.90;99.90;;;;;;5044248;28;20513;-77
2021/04/30 11:52:48;;;;;;;29.90;27.10;;;14.80;99.90;;;;;;5044764;28;20996;-75
2021/04/30 11:55:17;;;;;;;28.10;25.60;;;14.90;99.90;;;;;;5042684;28;20464;-76
2021/04/30 11:57:51;;;;;;;27.67;25.07;;;15.20;99.90;;;;;;5042189;28;20464;-74
2021/04/30 12:00:20;;;;;;;30.60;27.73;;;15.40;99.90;;;;;;5042419;28;21458;-78
2021/04/30 12:02:58;;;;;;;28.70;26.00;;;15.40;99.90;;;;;;5043078;28;20526;-74
2021/04/30 12:05:25;;;;;;;28.77;26.03;;;15.80;99.90;;;;;;5041899;28;20464;-76
2021/04/30 12:07:51;;;;;;;29.30;26.37;;;15.40;99.90;;;;;;5042233;28;20459;-76
2021/04/30 12:10:24;;;;;;;28.83;26.13;;;15.60;99.90;;;;;;5042755;28;20487;-76
2021/04/30 12:12:51;;;;;;;27.80;24.73;;;15.30;99.60;;;;;;5041753;28;20520;-75
2021/04/30 12:15:26;;;;;;;27.23;24.77;;;15.50;99.60;;;;;;5041086;28;20828;-77
2021/04/30 12:17:54;;;;;;;28.10;25.43;;;15.50;99.90;;;;;;5038785;28;20547;-75
2021/04/30 12:20:24;;;;;;;29.03;26.00;;;15.20;99.80;;;;;;5043744;28;20471;-77
2021/04/30 12:22:56;;;;;;;28.47;25.53;;;15.70;99.30;;;;;;5041876;28;20853;-75
2021/04/30 12:25:37;;;;;;;30.20;27.30;;;15.90;99.50;;;;;;5041833;28;20474;-77
2021/04/30 12:28:17;;;;;;;29.20;26.60;;;15.30;99.70;;;;;;5033385;28;20468;-75
2021/04/30 12:30:45;;;;;;;30.47;27.50;;;15.40;99.90;;;;;;5042410;28;20491;-75
2021/04/30 12:33:25;;;;;;;29.43;26.60;;;15.70;98.70;;;;;;5044495;28;20491;-75
2021/04/30 12:35:52;;;;;;;29.83;27.10;;;16.20;99.30;;;;;;5043840;28;20501;-77
2021/04/30 12:38:19;;;;;;;28.93;26.50;;;16.50;98.60;;;;;;5042540;28;20525;-75
2021/04/30 12:40:46;;;;;;;29.63;26.93;;;16.20;98.80;;;;;;5042420;28;20479;-78